Time;durP1;ratioP1;P1;durP2;ratioP2;P2;SDS_P1;SDS_P2;PMS_P1;PMS_P2;Temp;Humidity;BMP_temperature;BMP_pressure;BME280_temperature;BME280_humidity;BME280_pressure;Samples;Min_cycle;Max_cycle;Signal;HPM_P1;HPM_P2
2023/02/10 00:00:02;;;;;;;77.40;38.78;;;3.60;99.90;;;;;;4990795;28;20066;-66
2023/02/10 00:02:29;;;;;;;70.68;36.97;;;3.60;99.90;;;;;;4991165;28;20480;-66
2023/02/10 00:04:54;;;;;;;71.35;37.80;;;3.50;99.90;;;;;;4994331;28;20154;-66
2023/02/10 00:07:20;;;;;;;74.07;38.55;;;3.50;99.90;;;;;;4994400;28;20047;-66
2023/02/10 00:09:46;;;;;;;77.22;39.45;;;3.60;99.90;;;;;;4994161;28;20391;-66
2023/02/10 00:12:12;;;;;;;73.53;40.05;;;3.60;99.90;;;;;;4994156;28;20042;-66
2023/02/10 00:14:37;;;;;;;75.75;38.33;;;3.60;99.90;;;;;;4994150;28;20044;-66
2023/02/10 00:17:03;;;;;;;83.35;39.50;;;3.60;99.90;;;;;;4994362;28;20034;-66
2023/02/10 00:19:30;;;;;;;81.80;38.85;;;3.60;99.90;;;;;;4993947;28;20053;-66
2023/02/10 00:21:57;;;;;;;86.82;40.72;;;3.70;99.90;;;;;;4994170;28;20040;-64
2023/02/10 00:24:23;;;;;;;91.07;41.40;;;3.70;99.90;;;;;;4993878;28;20383;-66
2023/02/10 00:26:49;;;;;;;84.35;40.35;;;3.70;99.90;;;;;;4993755;28;20022;-66
2023/02/10 00:29:14;;;;;;;80.38;40.67;;;3.70;99.90;;;;;;4993890;28;20109;-66
2023/02/10 00:31:40;;;;;;;81.78;41.65;;;3.70;99.90;;;;;;4993819;28;20037;-66
2023/02/10 00:34:07;;;;;;;83.78;42.10;;;;;;;;;;4992658;28;20544;-66
2023/02/10 00:36:32;;;;;;;86.15;43.30;;;3.60;99.90;;;;;;4993844;28;20391;-66
2023/02/10 00:38:58;;;;;;;91.18;42.63;;;3.60;99.90;;;;;;4993692;28;20023;-66
2023/02/10 00:41:24;;;;;;;86.65;42.40;;;3.60;99.90;;;;;;4993499;28;20050;-66
2023/02/10 00:43:51;;;;;;;86.43;43.35;;;3.70;99.90;;;;;;5008941;28;20022;-66
2023/02/10 00:46:18;;;;;;;86.80;42.60;;;3.60;99.90;;;;;;5008878;28;20061;-66
2023/02/10 00:48:44;;;;;;;91.53;43.05;;;3.60;99.90;;;;;;4992433;28;20026;-66
2023/02/10 00:51:11;;;;;;;85.90;42.22;;;3.60;99.90;;;;;;4992479;28;20396;-66
2023/02/10 00:53:36;;;;;;;89.88;42.58;;;3.70;99.90;;;;;;5009102;28;20030;-66
2023/02/10 00:56:02;;;;;;;84.63;42.92;;;3.70;99.90;;;;;;4993671;28;20034;-66
2023/02/10 00:58:28;;;;;;;86.88;41.63;;;3.70;99.90;;;;;;4993429;28;20476;-66
2023/02/10 01:00:54;;;;;;;96.55;44.28;;;3.70;99.90;;;;;;4993514;28;20027;-66
2023/02/10 01:03:20;;;;;;;86.47;41.88;;;3.70;99.90;;;;;;4993361;28;20472;-66
2023/02/10 01:05:45;;;;;;;86.93;42.78;;;3.70;99.90;;;;;;4993313;28;20026;-63
2023/02/10 01:08:12;;;;;;;88.45;42.83;;;3.70;99.90;;;;;;4993344;28;20455;-66
2023/02/10 01:10:38;;;;;;;86.50;41.78;;;3.70;99.90;;;;;;4993276;28;20059;-63
2023/02/10 01:13:05;;;;;;;86.05;42.88;;;3.70;99.90;;;;;;4993189;28;20611;-63
2023/02/10 01:15:30;;;;;;;83.85;42.38;;;3.70;99.90;;;;;;4991738;28;20072;-63
2023/02/10 01:17:56;;;;;;;93.82;42.83;;;3.70;99.90;;;;;;4992991;28;20039;-63
2023/02/10 01:20:22;;;;;;;88.20;42.22;;;3.70;99.90;;;;;;4993053;28;20026;-63
2023/02/10 01:22:48;;;;;;;90.38;43.65;;;3.70;99.90;;;;;;4992974;28;20034;-66
2023/02/10 01:25:13;;;;;;;88.65;43.60;;;3.70;99.90;;;;;;4992831;28;20404;-63
2023/02/10 01:27:40;;;;;;;84.60;43.03;;;3.70;99.90;;;;;;4992979;28;20049;-63
2023/02/10 01:30:06;;;;;;;85.72;43.72;;;3.70;99.90;;;;;;4993004;28;20124;-66
2023/02/10 01:32:31;;;;;;;93.00;43.10;;;3.70;99.90;;;;;;4993023;28;20068;-66
2023/02/10 01:34:57;;;;;;;86.45;44.72;;;3.70;99.90;;;;;;4992838;28;20030;-66
2023/02/10 01:37:22;;;;;;;87.80;43.55;;;3.70;99.90;;;;;;4992807;28;20031;-66
2023/02/10 01:39:48;;;;;;;93.07;45.25;;;3.70;99.90;;;;;;4992971;28;20103;-66
2023/02/10 01:42:15;;;;;;;89.57;43.40;;;3.60;99.90;;;;;;4992450;28;20051;-66
2023/02/10 01:47:22;;;;;;;86.78;42.92;;;3.60;99.90;;;;;;5111089;27;20380;-64
2023/02/10 01:49:50;;;;;;;84.65;42.67;;;3.60;99.90;;;;;;5111316;28;20020;-64
2023/02/10 01:52:23;;;;;;;89.53;44.22;;;3.60;99.90;;;;;;5111276;28;20031;-64
2023/02/10 01:54:53;;;;;;;;;;;3.50;99.90;;;;;;5111439;28;20073;-64
2023/02/10 01:57:19;;;;;;;85.53;42.95;;;3.50;99.90;;;;;;5111139;28;19904;-64
2023/02/10 01:59:45;;;;;;;81.40;42.53;;;3.50;99.90;;;;;;5110888;28;20024;-64
2023/02/10 02:02:12;;;;;;;90.03;43.47;;;3.40;99.90;;;;;;5110932;28;20379;-64
2023/02/10 02:04:50;;;;;;;78.55;40.20;;;3.40;99.90;;;;;;5109788;28;20107;-64
2023/02/10 02:07:18;;;;;;;92.88;44.55;;;3.30;99.90;;;;;;5110813;28;20119;-64
2023/02/10 02:09:44;;;;;;;89.30;43.70;;;3.30;99.90;;;;;;5110741;28;20015;-64
2023/02/10 02:12:36;;;;;;;81.63;41.88;;;3.30;99.90;;;;;;5110799;28;20477;-64
2023/02/10 02:17:54;;;;;;;86.10;42.60;;;3.20;99.90;;;;;;5090840;28;20382;-64
2023/02/10 02:20:59;;;;;;;80.50;41.70;;;3.10;99.90;;;;;;5089673;28;20040;-64
2023/02/10 02:23:54;;;;;;;82.40;40.67;;;3.10;99.90;;;;;;5090572;28;20107;-64
2023/02/10 02:26:46;;;;;;;79.28;38.70;;;2.90;99.90;;;;;;5090505;28;20550;-64
2023/02/10 02:29:49;;;;;;;80.75;40.70;;;2.80;99.90;;;;;;5090619;28;20056;-64
2023/02/10 02:32:19;;;;;;;86.32;40.08;;;2.60;99.90;;;;;;5090404;28;20031;-64
2023/02/10 02:34:52;;;;;;;74.65;38.90;;;2.50;99.90;;;;;;5089535;28;20141;-64
2023/02/10 02:37:23;;;;;;;83.80;41.15;;;2.40;99.90;;;;;;5090393;28;20115;-64
2023/02/10 02:39:51;;;;;;;78.72;40.88;;;2.40;99.90;;;;;;5090423;28;20496;-64
2023/02/10 02:42:22;;;;;;;91.70;43.80;;;2.40;99.90;;;;;;5090381;28;20482;-64
2023/02/10 02:44:53;;;;;;;94.45;43.97;;;2.40;99.90;;;;;;5089155;28;20021;-64
2023/02/10 02:47:34;;;;;;;82.75;41.63;;;2.50;99.90;;;;;;5090427;28;20122;-64
2023/02/10 02:50:23;;;;;;;78.78;41.13;;;2.60;99.90;;;;;;5090371;28;20107;-64
2023/02/10 02:56:03;;;;;;;98.32;42.47;;;2.60;99.90;;;;;;5111216;27;20755;-64
2023/02/10 02:58:55;;;;;;;88.25;42.72;;;2.60;99.90;;;;;;5110944;28;20035;-64
2023/02/10 03:01:30;;;;;;;95.80;45.95;;;2.60;99.90;;;;;;5111126;28;20020;-64
2023/02/10 03:03:57;;;;;;;95.68;45.28;;;2.60;99.90;;;;;;5110943;28;20077;-64
2023/02/10 03:06:23;;;;;;;107.40;48.40;;;2.70;99.90;;;;;;5109756;28;20024;-64
2023/02/10 03:08:49;;;;;;;107.80;48.92;;;2.80;99.90;;;;;;5109613;28;20409;-64
2023/02/10 03:11:15;;;;;;;100.53;48.55;;;2.80;99.90;;;;;;5111047;28;20036;-64
2023/02/10 03:13:41;;;;;;;106.68;48.25;;;2.80;99.90;;;;;;5109586;28;20035;-64
2023/02/10 03:16:06;;;;;;;103.57;49.22;;;2.80;99.90;;;;;;5110952;28;20452;-64
2023/02/10 03:18:32;;;;;;;103.68;49.85;;;2.70;99.90;;;;;;5110856;28;20032;-64
2023/02/10 03:20:57;;;;;;;105.18;51.60;;;2.70;99.90;;;;;;5110892;28;20044;-64
2023/02/10 03:23:23;;;;;;;101.78;51.00;;;2.70;99.90;;;;;;5110608;28;20042;-64
2023/02/10 03:25:48;;;;;;;120.88;51.45;;;2.70;99.90;;;;;;5110488;28;20034;-64
2023/02/10 03:28:14;;;;;;;113.18;52.33;;;2.70;99.90;;;;;;5110582;28;20028;-63
2023/02/10 03:30:46;;;;;;;119.63;53.70;;;2.70;99.90;;;;;;5110427;28;20030;-64
2023/02/10 03:33:12;;;;;;;118.82;52.60;;;2.70;99.90;;;;;;5110451;28;20482;-64
2023/02/10 03:35:39;;;;;;;109.05;54.03;;;2.60;99.90;;;;;;5110488;28;20107;-65
2023/02/10 03:38:05;;;;;;;114.05;53.63;;;2.70;99.90;;;;;;5110611;28;20099;-64
2023/02/10 03:40:30;;;;;;;110.57;52.33;;;2.60;99.90;;;;;;5110258;28;20497;-63
2023/02/10 03:42:56;;;;;;;107.78;51.28;;;2.50;99.90;;;;;;5110363;28;20028;-64
2023/02/10 03:45:21;;;;;;;117.65;53.20;;;2.40;99.90;;;;;;5110208;28;20066;-63
2023/02/10 03:47:47;;;;;;;123.15;56.05;;;2.40;99.90;;;;;;5110139;28;20030;-63
2023/02/10 03:50:12;;;;;;;124.30;55.25;;;2.30;99.90;;;;;;5110177;28;20034;-64
2023/02/10 03:52:39;;;;;;;111.30;53.22;;;;;;;;;;5109939;28;20107;-64
2023/02/10 03:55:05;;;;;;;111.65;51.92;;;2.10;99.90;;;;;;5109808;28;20127;-64
2023/02/10 03:57:31;;;;;;;111.25;53.17;;;1.90;99.90;;;;;;5109930;28;20482;-64
2023/02/10 03:59:56;;;;;;;111.68;52.30;;;1.80;99.90;;;;;;5110043;28;20066;-64
2023/02/10 04:02:22;;;;;;;115.18;52.63;;;1.70;99.90;;;;;;5110061;28;20032;-64
2023/02/10 04:04:48;;;;;;;118.05;53.40;;;1.80;99.90;;;;;;5108638;28;20036;-64
2023/02/10 04:07:13;;;;;;;126.10;57.40;;;1.80;99.90;;;;;;5096104;28;20060;-64
2023/02/10 04:09:39;;;;;;;128.93;58.05;;;1.80;99.90;;;;;;5096161;28;20394;-64
2023/02/10 04:12:04;;;;;;;129.80;59.05;;;1.90;99.90;;;;;;5096120;28;20028;-64
2023/02/10 04:14:30;;;;;;;140.88;58.35;;;1.80;99.90;;;;;;5095885;28;20124;-64
2023/02/10 04:16:55;;;;;;;134.23;61.78;;;1.90;99.90;;;;;;5096009;28;20024;-64
2023/02/10 04:19:21;;;;;;;139.70;61.30;;;1.80;99.90;;;;;;5095947;28;20028;-64
2023/02/10 04:21:48;;;;;;;136.25;60.15;;;1.70;99.90;;;;;;5095918;28;20414;-64
2023/02/10 04:24:14;;;;;;;147.13;61.72;;;1.80;99.90;;;;;;5096085;28;20031;-64
2023/02/10 04:26:39;;;;;;;142.55;63.53;;;1.80;99.90;;;;;;5096027;28;20024;-64
2023/02/10 04:29:05;;;;;;;136.98;60.75;;;1.90;99.90;;;;;;5095860;28;20077;-64
2023/02/10 04:31:30;;;;;;;141.65;60.97;;;1.80;99.90;;;;;;5095668;28;20081;-64
2023/02/10 04:33:56;;;;;;;142.07;62.20;;;1.80;99.90;;;;;;5095598;28;20454;-64
2023/02/10 04:36:21;;;;;;;148.57;61.15;;;1.90;99.90;;;;;;5095693;28;20101;-64
2023/02/10 04:38:47;;;;;;;133.30;62.00;;;1.80;99.90;;;;;;5095566;28;20028;-64
2023/02/10 04:41:12;;;;;;;130.98;59.53;;;1.70;99.90;;;;;;5095570;28;20436;-64
2023/02/10 04:43:38;;;;;;;140.70;59.85;;;1.70;99.90;;;;;;5095495;28;20035;-64
2023/02/10 04:46:04;;;;;;;139.48;64.45;;;1.70;99.90;;;;;;5095396;28;20111;-64
2023/02/10 04:48:30;;;;;;;151.55;63.35;;;1.60;99.90;;;;;;5095387;28;20363;-64
2023/02/10 04:50:55;;;;;;;145.45;63.72;;;1.60;99.90;;;;;;5095600;28;20039;-64
2023/02/10 04:53:21;;;;;;;149.27;64.15;;;1.60;99.90;;;;;;5095062;28;20024;-64
2023/02/10 04:55:46;;;;;;;149.20;61.47;;;1.50;99.90;;;;;;5095256;28;20095;-64
2023/02/10 04:58:12;;;;;;;149.52;60.30;;;1.60;99.90;;;;;;5095253;28;20031;-64
2023/02/10 05:00:38;;;;;;;132.48;58.80;;;1.40;99.90;;;;;;5095187;28;20028;-64
2023/02/10 05:03:03;;;;;;;145.88;60.38;;;1.20;99.90;;;;;;5094891;28;20020;-64
2023/02/10 05:05:29;;;;;;;151.90;63.88;;;1.30;99.90;;;;;;5093875;28;20028;-64
2023/02/10 05:07:54;;;;;;;160.00;65.15;;;1.30;99.90;;;;;;5094805;28;20038;-64
2023/02/10 05:10:20;;;;;;;150.93;65.05;;;1.30;99.90;;;;;;5094986;28;20081;-64
2023/02/10 05:12:46;;;;;;;159.77;64.65;;;1.40;99.90;;;;;;5095061;28;20540;-64
2023/02/10 05:15:13;;;;;;;153.20;64.07;;;1.30;99.90;;;;;;5094746;28;20028;-64
2023/02/10 05:17:39;;;;;;;151.95;66.40;;;1.30;99.90;;;;;;5094092;28;20051;-64
2023/02/10 05:20:06;;;;;;;157.77;66.63;;;1.30;99.90;;;;;;5093692;28;20099;-64
2023/02/10 05:22:35;;;;;;;176.65;67.10;;;1.20;99.90;;;;;;5093517;28;20535;-64
2023/02/10 05:25:00;;;;;;;164.50;69.30;;;1.20;99.90;;;;;;5093388;28;20028;-64
2023/02/10 05:27:26;;;;;;;181.13;71.40;;;1.40;99.90;;;;;;5094593;28;20093;-64
2023/02/10 05:29:52;;;;;;;185.75;72.07;;;1.40;99.90;;;;;;5094598;28;20031;-64
2023/02/10 05:32:18;;;;;;;178.55;71.13;;;1.40;99.90;;;;;;5094875;28;20025;-64
2023/02/10 05:34:43;;;;;;;167.68;68.78;;;1.40;99.90;;;;;;5094460;28;20028;-64
2023/02/10 05:37:09;;;;;;;178.18;70.57;;;1.30;99.90;;;;;;5094472;28;20052;-65
2023/02/10 05:39:34;;;;;;;177.70;69.13;;;1.20;99.90;;;;;;5094490;28;20031;-64
2023/02/10 05:42:00;;;;;;;182.43;71.72;;;1.10;99.90;;;;;;5094337;28;20106;-64
2023/02/10 05:44:28;;;;;;;172.32;70.45;;;1.20;99.90;;;;;;5094427;28;20032;-64
2023/02/10 05:46:54;;;;;;;188.82;73.57;;;1.20;99.90;;;;;;5093147;28;20470;-64
2023/02/10 05:49:20;;;;;;;187.15;73.22;;;1.20;99.90;;;;;;5093024;28;20024;-64
2023/02/10 05:51:46;;;;;;;190.07;72.28;;;1.30;99.90;;;;;;5094296;28;20482;-64
2023/02/10 05:54:12;;;;;;;188.30;74.07;;;1.30;99.90;;;;;;5092804;28;20094;-64
2023/02/10 05:56:39;;;;;;;199.65;77.75;;;1.30;99.90;;;;;;5093041;28;20026;-64
2023/02/10 05:59:04;;;;;;;246.60;99.90;;;1.30;99.90;;;;;;5094140;28;20020;-64
2023/02/10 06:01:30;;;;;;;224.13;89.22;;;1.30;99.90;;;;;;5093634;28;20024;-64
2023/02/10 06:03:56;;;;;;;194.68;75.63;;;1.30;99.90;;;;;;5092819;28;20141;-64
2023/02/10 06:06:21;;;;;;;198.50;80.10;;;1.50;99.90;;;;;;5094109;28;20490;-64
2023/02/10 06:08:47;;;;;;;208.30;82.38;;;1.60;99.90;;;;;;5094091;28;20028;-64
2023/02/10 06:11:12;;;;;;;220.93;89.13;;;1.70;99.90;;;;;;5093915;28;20024;-64
2023/02/10 06:13:38;;;;;;;210.73;79.90;;;1.80;99.90;;;;;;5093803;28;20028;-64
2023/02/10 06:16:04;;;;;;;205.30;78.43;;;1.70;99.90;;;;;;5093727;28;20417;-64
2023/02/10 06:18:31;;;;;;;204.38;78.60;;;1.80;99.90;;;;;;5093731;28;20031;-64
2023/02/10 06:20:57;;;;;;;194.95;78.45;;;1.90;99.90;;;;;;5093620;28;20031;-64
2023/02/10 06:23:23;;;;;;;187.85;78.72;;;1.90;99.90;;;;;;5093610;28;20024;-64
2023/02/10 06:25:54;;;;;;;200.25;78.43;;;2.00;99.90;;;;;;5093650;28;20016;-64
2023/02/10 06:28:21;;;;;;;190.00;78.57;;;2.00;99.90;;;;;;5093210;28;20089;-64
2023/02/10 06:30:46;;;;;;;183.63;75.00;;;2.10;99.90;;;;;;5093567;28;20030;-64
2023/02/10 06:33:12;;;;;;;189.15;79.00;;;2.10;99.90;;;;;;5093517;28;20110;-65
2023/02/10 06:35:37;;;;;;;185.68;76.00;;;2.20;99.90;;;;;;5093509;28;20081;-63
2023/02/10 06:38:03;;;;;;;181.35;74.72;;;2.20;99.90;;;;;;5093378;28;20017;-64
2023/02/10 06:40:29;;;;;;;184.05;73.95;;;2.20;99.90;;;;;;5093429;28;20028;-63
2023/02/10 06:42:54;;;;;;;173.60;72.18;;;2.20;99.90;;;;;;5093219;28;20164;-64
2023/02/10 06:45:20;;;;;;;174.50;74.25;;;2.20;99.90;;;;;;5093372;28;20107;-64
2023/02/10 06:47:45;;;;;;;173.73;75.13;;;2.20;99.90;;;;;;5093500;28;20036;-64
2023/02/10 06:50:12;;;;;;;167.40;74.22;;;2.20;99.90;;;;;;5093311;28;20032;-64
2023/02/10 06:52:37;;;;;;;174.30;71.38;;;2.30;99.90;;;;;;5093384;28;20032;-63
2023/02/10 06:55:05;;;;;;;153.85;67.00;;;2.30;99.90;;;;;;5091853;28;20127;-63
2023/02/10 06:57:31;;;;;;;164.30;66.03;;;2.30;99.90;;;;;;5093457;28;20099;-63
2023/02/10 06:59:58;;;;;;;157.55;67.57;;;2.30;99.90;;;;;;5093073;28;20103;-63
2023/02/10 07:02:24;;;;;;;150.95;64.97;;;2.30;99.90;;;;;;5092899;28;20023;-67
2023/02/10 07:04:49;;;;;;;154.50;65.07;;;2.30;99.90;;;;;;5093102;28;20024;-67
2023/02/10 07:07:15;;;;;;;148.60;66.40;;;2.40;99.90;;;;;;5093244;28;20032;-67
2023/02/10 07:09:40;;;;;;;151.25;64.43;;;2.40;99.90;;;;;;5093272;28;20031;-67
2023/02/10 07:12:06;;;;;;;157.27;66.65;;;2.40;99.90;;;;;;5093122;28;20028;-67
2023/02/10 07:14:32;;;;;;;163.60;63.80;;;2.40;99.90;;;;;;5092900;28;20062;-67
2023/02/10 07:16:57;;;;;;;154.23;65.95;;;2.40;99.90;;;;;;5089232;28;20028;-67
2023/02/10 07:19:23;;;;;;;151.73;67.20;;;2.50;99.90;;;;;;5089832;28;20031;-67
2023/02/10 07:21:48;;;;;;;149.20;64.40;;;2.50;99.90;;;;;;5091324;28;20081;-67
2023/02/10 07:24:14;;;;;;;146.45;66.45;;;2.50;99.90;;;;;;5084799;28;20486;-67
2023/02/10 07:26:40;;;;;;;144.23;63.25;;;2.50;99.90;;;;;;5089978;28;20032;-67
2023/02/10 07:29:05;;;;;;;153.27;63.83;;;2.60;99.90;;;;;;5089834;28;20028;-67
2023/02/10 07:31:34;;;;;;;147.20;62.60;;;2.60;99.90;;;;;;5092758;28;20036;-67
2023/02/10 07:34:00;;;;;;;145.40;60.88;;;2.60;99.90;;;;;;5090498;28;20024;-67
2023/02/10 07:36:26;;;;;;;137.10;61.05;;;2.60;99.90;;;;;;5091643;28;20497;-67
2023/02/10 07:38:51;;;;;;;144.52;61.15;;;2.60;99.90;;;;;;5091492;28;20028;-67
2023/02/10 07:41:17;;;;;;;143.38;62.00;;;2.60;99.90;;;;;;5092078;28;20031;-67
2023/02/10 07:43:42;;;;;;;137.35;61.55;;;2.60;99.90;;;;;;5090602;28;20028;-67
2023/02/10 07:46:08;;;;;;;144.15;62.40;;;2.70;99.90;;;;;;5076059;28;20024;-67
2023/02/10 07:48:33;;;;;;;139.88;60.40;;;2.70;99.90;;;;;;5076425;28;20036;-67
2023/02/10 07:50:59;;;;;;;133.73;58.47;;;2.60;99.90;;;;;;5085099;28;20028;-68
2023/02/10 07:53:24;;;;;;;128.77;59.00;;;2.60;99.90;;;;;;5096070;28;20032;-67
2023/02/10 07:55:50;;;;;;;141.68;59.58;;;2.70;99.90;;;;;;5092552;28;20115;-67
2023/02/10 07:58:15;;;;;;;135.02;57.83;;;2.70;99.90;;;;;;5095902;28;20393;-67
2023/02/10 08:00:41;;;;;;;133.20;57.92;;;2.70;99.90;;;;;;5093369;28;20027;-67
2023/02/10 08:03:11;;;;;;;147.57;61.85;;;2.70;99.90;;;;;;5096436;28;20024;-67
2023/02/10 08:05:37;;;;;;;141.25;61.92;;;2.80;99.90;;;;;;5094679;28;20393;-67
2023/02/10 08:08:03;;;;;;;129.32;61.05;;;2.80;99.90;;;;;;5075862;28;20095;-67
2023/02/10 08:10:28;;;;;;;136.77;61.28;;;2.80;99.90;;;;;;5083692;28;20112;-67
2023/02/10 08:12:54;;;;;;;125.07;57.78;;;2.90;99.90;;;;;;5096025;28;20028;-67
2023/02/10 08:15:22;;;;;;;133.43;57.42;;;2.90;99.90;;;;;;5093769;28;20035;-67
2023/02/10 08:17:47;;;;;;;122.10;55.03;;;3.00;99.90;;;;;;5084308;28;20060;-67
2023/02/10 08:20:13;;;;;;;129.00;56.28;;;3.10;99.90;;;;;;5094577;28;20547;-67
2023/02/10 08:22:39;;;;;;;124.03;55.60;;;3.20;99.90;;;;;;5094567;28;20029;-67
2023/02/10 08:25:05;;;;;;;118.20;55.20;;;3.20;99.90;;;;;;5094402;28;20024;-67
2023/02/10 08:27:30;;;;;;;122.78;54.35;;;3.30;99.90;;;;;;5094637;28;20032;-67
2023/02/10 08:29:56;;;;;;;121.20;53.75;;;3.30;99.90;;;;;;5100780;28;20093;-67
2023/02/10 08:32:22;;;;;;;111.25;52.38;;;3.40;99.90;;;;;;5098813;28;20448;-67
2023/02/10 08:34:48;;;;;;;115.68;53.22;;;3.40;99.90;;;;;;5085846;28;20028;-66
2023/02/10 08:37:14;;;;;;;119.45;52.60;;;3.40;99.90;;;;;;5094533;28;20016;-67
2023/02/10 08:39:40;;;;;;;118.35;52.92;;;3.50;99.90;;;;;;5091685;28;20016;-68
2023/02/10 08:42:06;;;;;;;120.63;51.97;;;3.50;99.90;;;;;;5095236;28;20028;-67
2023/02/10 08:44:33;;;;;;;113.78;50.95;;;3.40;99.90;;;;;;5093224;28;20039;-67
2023/02/10 08:46:59;;;;;;;114.07;52.00;;;3.40;99.90;;;;;;5093292;28;20062;-67
2023/02/10 08:49:25;;;;;;;117.20;51.20;;;3.30;99.90;;;;;;5081559;28;20036;-68
2023/02/10 08:51:51;;;;;;;117.80;53.67;;;3.30;99.90;;;;;;5074903;28;20395;-67
2023/02/10 08:54:17;;;;;;;123.75;54.55;;;3.30;99.90;;;;;;5081415;28;20395;-67
2023/02/10 08:56:43;;;;;;;121.47;53.75;;;3.30;99.90;;;;;;5095310;28;20039;-67
2023/02/10 08:59:08;;;;;;;110.93;51.28;;;3.70;99.90;;;;;;5094101;28;20073;-67
2023/02/10 09:01:34;;;;;;;105.45;48.67;;;4.40;99.90;;;;;;5093625;28;20080;-67
2023/02/10 09:04:00;;;;;;;103.07;49.55;;;4.80;99.90;;;;;;5086594;28;20040;-67
2023/02/10 09:06:30;;;;;;;100.82;47.33;;;5.10;99.90;;;;;;5085258;28;20024;-67
2023/02/10 09:08:55;;;;;;;98.47;47.05;;;5.60;99.90;;;;;;5093229;28;20032;-67
2023/02/10 09:11:23;;;;;;;90.20;46.30;;;5.90;99.90;;;;;;5094984;28;20039;-68
2023/02/10 09:13:49;;;;;;;86.47;43.45;;;6.20;99.90;;;;;;5092470;28;20036;-68
2023/02/10 09:16:15;;;;;;;84.20;43.88;;;6.20;99.90;;;;;;5075401;28;20532;-68
2023/02/10 09:18:40;;;;;;;96.85;46.53;;;6.30;99.90;;;;;;5077386;28;20023;-67
2023/02/10 09:21:06;;;;;;;89.30;44.45;;;5.90;99.90;;;;;;5091478;28;20398;-67
2023/02/10 09:23:31;;;;;;;90.40;45.65;;;5.80;99.90;;;;;;5076013;28;20028;-68
2023/02/10 09:25:59;;;;;;;88.70;44.60;;;6.10;99.90;;;;;;5094671;28;20099;-67
2023/02/10 09:28:25;;;;;;;99.60;46.22;;;5.70;99.90;;;;;;5093199;28;20076;-67
2023/02/10 09:30:51;;;;;;;97.53;46.08;;;6.00;99.90;;;;;;5094140;28;20016;-68
2023/02/10 09:33:17;;;;;;;93.82;44.38;;;5.80;99.90;;;;;;5093328;28;20459;-67
2023/02/10 09:35:43;;;;;;;91.53;44.58;;;5.80;99.90;;;;;;5092636;28;20038;-67
2023/02/10 09:38:10;;;;;;;97.82;44.78;;;5.80;99.90;;;;;;5087661;28;20020;-68
2023/02/10 09:41:04;;;;;;;89.32;44.92;;;6.00;99.90;;;;;;5085386;28;20032;-67
2023/02/10 09:43:51;;;;;;;88.55;43.70;;;5.90;99.90;;;;;;5088237;28;20044;-68
2023/02/10 09:49:53;;;;;;;89.03;46.55;;;5.80;99.90;;;;;;5034045;28;20386;-67
2023/02/10 09:52:49;;;;;;;90.90;44.70;;;5.80;99.90;;;;;;5033788;28;20068;-67
2023/02/10 09:55:20;;;;;;;97.30;46.25;;;5.80;99.90;;;;;;5030565;28;20061;-67
2023/02/10 09:57:54;;;;;;;91.07;43.72;;;6.00;99.90;;;;;;5029719;28;20064;-67
2023/02/10 10:00:28;;;;;;;90.30;44.05;;;5.90;99.90;;;;;;5022053;28;20419;-67
2023/02/10 10:02:56;;;;;;;89.55;42.35;;;6.20;99.90;;;;;;5029220;28;20033;-67
2023/02/10 10:05:46;;;;;;;89.53;42.92;;;6.70;99.90;;;;;;5017438;28;20030;-67
2023/02/10 10:08:24;;;;;;;85.95;41.20;;;7.00;99.90;;;;;;5029964;28;20022;-69
2023/02/10 10:10:50;;;;;;;83.13;42.50;;;7.20;99.90;;;;;;5028836;28;20515;-67
2023/02/10 10:13:23;;;;;;;82.90;41.42;;;7.50;99.90;;;;;;5040931;28;20048;-68
2023/02/10 10:16:28;;;;;;;84.10;41.30;;;8.00;99.90;;;;;;5025661;28;20045;-68
2023/02/10 10:19:06;;;;;;;75.43;38.95;;;7.80;99.90;;;;;;5026160;28;20041;-67
2023/02/10 10:21:46;;;;;;;82.00;42.45;;;8.00;99.90;;;;;;5029911;28;20144;-69
2023/02/10 10:24:39;;;;;;;80.78;41.05;;;8.20;99.90;;;;;;5030093;28;20029;-68
2023/02/10 10:27:30;;;;;;;75.35;39.80;;;7.90;99.90;;;;;;5029112;28;20140;-68
2023/02/10 10:30:02;;;;;;;81.80;41.05;;;7.70;99.90;;;;;;5028412;28;20076;-68
2023/02/10 10:32:41;;;;;;;74.53;39.60;;;;;;;;;;5029735;28;20073;-68
2023/02/10 10:35:28;;;;;;;71.88;38.55;;;8.50;99.90;;;;;;5037183;28;20027;-68
2023/02/10 10:37:54;;;;;;;81.45;41.22;;;8.50;99.90;;;;;;5026693;28;20040;-68
2023/02/10 10:40:25;;;;;;;81.28;40.20;;;7.90;99.90;;;;;;5028156;28;20029;-68
2023/02/10 10:42:58;;;;;;;87.30;43.28;;;7.50;99.90;;;;;;5025543;28;20326;-67
2023/02/10 10:45:38;;;;;;;81.63;41.13;;;7.10;99.90;;;;;;5028615;28;20029;-68
2023/02/10 10:48:09;;;;;;;77.10;39.03;;;7.60;99.90;;;;;;5024668;28;20412;-68
2023/02/10 10:50:35;;;;;;;77.07;38.38;;;8.00;99.90;;;;;;5029353;28;20056;-68
2023/02/10 10:53:11;;;;;;;70.10;38.65;;;8.20;99.90;;;;;;5026892;28;20479;-67
2023/02/10 10:55:40;;;;;;;71.32;37.83;;;8.60;99.90;;;;;;5028298;28;20484;-68
2023/02/10 10:58:27;;;;;;;71.43;37.55;;;9.10;99.90;;;;;;5024902;28;20033;-67
2023/02/10 11:00:55;;;;;;;68.20;37.47;;;8.70;99.90;;;;;;5015202;28;20071;-68
2023/02/10 11:03:22;;;;;;;71.45;36.97;;;8.50;99.90;;;;;;5027209;28;20042;-68
2023/02/10 11:06:09;;;;;;;69.40;36.15;;;8.60;99.90;;;;;;5015759;28;20037;-69
2023/02/10 11:08:41;;;;;;;67.78;35.67;;;8.70;99.90;;;;;;5014674;28;20077;-68
2023/02/10 11:11:10;;;;;;;72.05;37.65;;;9.00;99.90;;;;;;5015076;28;20030;-68
2023/02/10 11:13:39;;;;;;;74.65;36.88;;;9.10;99.90;;;;;;5015950;28;20036;-68
2023/02/10 11:16:10;;;;;;;74.30;35.92;;;8.70;99.90;;;;;;5014714;28;20034;-68
2023/02/10 11:18:36;;;;;;;72.18;35.47;;;8.60;99.90;;;;;;5013331;28;20124;-68
2023/02/10 11:21:07;;;;;;;68.53;35.00;;;8.70;99.90;;;;;;5013306;28;20454;-68
2023/02/10 11:23:52;;;;;;;65.57;36.00;;;9.50;99.90;;;;;;5015059;28;20388;-68
2023/02/10 11:26:21;;;;;;;69.00;35.70;;;9.70;99.90;;;;;;5013688;28;20033;-68
2023/02/10 11:28:47;;;;;;;72.53;37.40;;;9.20;99.90;;;;;;5013011;28;20164;-68
2023/02/10 11:34:01;;;;;;;69.45;33.83;;;8.10;99.90;;;;;;5117530;27;20807;-67
2023/02/10 11:36:35;;;;;;;61.78;31.80;;;8.10;99.90;;;;;;5081201;28;20152;-68
2023/02/10 11:39:05;;;;;;;64.90;32.78;;;8.50;99.90;;;;;;5074467;28;20044;-68
2023/02/10 11:41:32;;;;;;;69.40;31.58;;;8.30;99.90;;;;;;5083673;28;20048;-68
2023/02/10 11:43:59;;;;;;;62.60;32.78;;;8.40;99.90;;;;;;5082372;28;20036;-68
2023/02/10 11:46:28;;;;;;;65.70;33.10;;;8.30;99.90;;;;;;5090502;28;20016;-68
2023/02/10 11:49:00;;;;;;;67.90;32.90;;;8.60;99.90;;;;;;5087996;28;20032;-67
2023/02/10 11:51:27;;;;;;;63.10;33.55;;;8.40;99.90;;;;;;5079324;28;20025;-68
2023/02/10 11:53:53;;;;;;;66.07;33.08;;;8.20;99.90;;;;;;5088990;28;20085;-68
2023/02/10 12:00:13;;;;;;;62.70;31.45;;;8.20;99.90;;;;;;5082549;28;20037;-68
2023/02/10 12:03:19;;;;;;;64.13;31.90;;;8.30;99.90;;;;;;5068743;28;20494;-68
2023/02/10 12:06:14;;;;;;;57.78;30.52;;;8.30;99.90;;;;;;5069270;28;20066;-67
2023/02/10 12:11:42;;;;;;;57.22;29.08;;;8.20;99.90;;;;;;5090202;28;20875;-68
2023/02/10 12:14:35;;;;;;;60.25;31.17;;;8.30;99.90;;;;;;5089069;28;20028;-67
2023/02/10 12:22:57;;;;;;;60.15;30.20;;;7.70;99.90;;;;;;5110885;27;20381;-67
2023/02/10 12:25:29;;;;;;;61.95;31.33;;;7.50;99.90;;;;;;5109934;28;20410;-67
2023/02/10 12:28:08;;;;;;;78.13;35.10;;;7.30;99.90;;;;;;5101592;28;20024;-67
2023/02/10 12:33:42;;;;;;;74.60;35.10;;;7.10;99.90;;;;;;5110914;27;20380;-67
2023/02/10 12:36:37;;;;;;;66.22;32.50;;;7.10;99.90;;;;;;5110879;28;20103;-67
2023/02/10 12:39:16;;;;;;;74.47;33.83;;;7.20;99.90;;;;;;5110549;28;20028;-68
2023/02/10 12:42:21;;;;;;;70.32;33.75;;;7.60;99.90;;;;;;5111094;28;20315;-68
2023/02/10 12:44:59;;;;;;;68.50;35.45;;;7.70;99.90;;;;;;5109797;28;20063;-68
2023/02/10 12:47:41;;;;;;;73.50;35.92;;;7.60;99.90;;;;;;5130308;28;20106;-67
2023/02/10 12:50:33;;;;;;;73.30;32.67;;;7.60;99.90;;;;;;5109030;27;20027;-68
2023/02/10 12:53:08;;;;;;;66.20;32.35;;;7.50;99.90;;;;;;5090058;28;20081;-67
2023/02/10 12:55:51;;;;;;;63.20;32.72;;;7.70;99.90;;;;;;5111069;28;20024;-68
2023/02/10 12:58:25;;;;;;;63.97;32.60;;;7.70;99.90;;;;;;5104184;28;20027;-67
2023/02/10 13:01:16;;;;;;;59.22;31.25;;;8.00;99.90;;;;;;5090228;28;20505;-67
2023/02/10 13:03:45;;;;;;;69.68;33.28;;;7.90;99.90;;;;;;5090011;28;20031;-67
2023/02/10 13:06:31;;;;;;;66.15;33.38;;;7.60;99.90;;;;;;5102427;28;20027;-67
2023/02/10 13:09:14;;;;;;;65.07;33.47;;;7.70;99.90;;;;;;5109205;28;20478;-67
2023/02/10 13:12:02;;;;;;;60.05;30.40;;;7.80;99.90;;;;;;5108972;28;20528;-67
2023/02/10 13:14:29;;;;;;;70.18;32.58;;;7.80;99.90;;;;;;5107863;28;20082;-67